createdAt,value
2022-12-13T08:05:26.768Z,14.04
2022-12-13T08:07:40.329Z,14.05
2022-12-13T08:10:06.704Z,14.00
2022-12-13T08:12:33.056Z,13.93
2022-12-13T08:14:59.387Z,13.91
2022-12-13T08:17:25.731Z,13.80
2022-12-13T08:19:52.089Z,13.71
2022-12-13T08:22:24.103Z,13.82
2022-12-13T08:24:44.778Z,14.03
2022-12-13T08:27:11.164Z,14.33
2022-12-13T08:29:37.517Z,14.55
2022-12-13T08:32:03.964Z,14.90
2022-12-13T08:34:30.312Z,15.15
2022-12-13T08:37:01.446Z,15.43
2022-12-13T08:39:22.970Z,15.76
2022-12-13T08:41:49.390Z,16.18
2022-12-13T08:44:15.723Z,16.68
2022-12-13T08:46:42.127Z,17.27
2022-12-13T08:49:08.494Z,17.86
2022-12-13T08:51:35.793Z,18.44
2022-12-13T08:54:10.392Z,18.99
2022-12-13T08:56:27.611Z,19.46
2022-12-13T08:58:53.972Z,19.86
2022-12-13T09:01:20.336Z,20.24
2022-12-13T09:03:46.633Z,20.61
2022-12-13T09:06:13.107Z,20.98
2022-12-13T09:08:39.476Z,21.34
2022-12-13T09:11:10.475Z,21.71
2022-12-13T09:13:33.027Z,22.03
2022-12-13T09:16:01.536Z,22.29
2022-12-13T09:18:26.957Z,22.57
2022-12-13T09:20:51.333Z,22.89
2022-12-13T09:23:23.627Z,23.18
2022-12-13T09:25:50.069Z,23.44
2022-12-13T09:28:10.397Z,23.68
2022-12-13T09:30:36.775Z,23.91
2022-12-13T09:33:25.289Z,24.12
2022-12-13T09:35:29.480Z,24.35
2022-12-13T09:37:55.858Z,24.33
2022-12-13T09:40:25.401Z,24.31
2022-12-13T09:42:48.590Z,24.27
2022-12-13T09:45:22.377Z,24.38
2022-12-13T09:47:46.879Z,24.58
2022-12-13T09:50:07.636Z,24.84
2022-12-13T09:52:33.912Z,25.05
2022-12-13T09:55:00.252Z,25.27
2022-12-13T09:57:31.253Z,25.46
2022-12-13T09:59:57.231Z,25.60
2022-12-13T10:02:19.342Z,25.73
2022-12-13T10:04:45.718Z,25.84
2022-12-13T10:07:12.036Z,25.97
2022-12-13T10:09:38.411Z,26.05
2022-12-13T10:12:04.813Z,26.15
2022-12-13T10:14:31.207Z,26.31
2022-12-13T10:16:57.556Z,26.46
2022-12-13T10:19:29.369Z,26.64
2022-12-13T10:21:50.283Z,26.81
2022-12-13T10:24:26.293Z,26.97
2022-12-13T10:26:42.968Z,27.13
2022-12-13T10:29:09.251Z,27.29
2022-12-13T10:31:35.647Z,27.39
2022-12-13T10:34:01.991Z,27.49
2022-12-13T10:36:28.298Z,27.57
2022-12-13T10:38:54.690Z,27.66
2022-12-13T10:41:21.042Z,27.78
2022-12-13T10:43:47.394Z,27.90
2022-12-13T10:46:13.801Z,27.99
2022-12-13T10:48:40.102Z,27.95
2022-12-13T10:51:06.455Z,27.69
2022-12-13T10:53:32.829Z,27.32
2022-12-13T10:56:02.459Z,26.90
2022-12-13T10:58:25.548Z,26.57
2022-12-13T11:00:51.942Z,26.41
2022-12-13T11:03:19.247Z,26.38
2022-12-13T11:05:45.634Z,26.51
2022-12-13T11:08:11.995Z,26.68
2022-12-13T11:10:38.303Z,26.86
2022-12-13T11:13:04.679Z,27.02
2022-12-13T11:15:31.049Z,27.17
2022-12-13T11:17:57.371Z,27.33
2022-12-13T11:20:23.734Z,27.42
2022-12-13T11:22:50.110Z,27.55
2022-12-13T11:25:16.429Z,27.64
2022-12-13T11:27:43.009Z,27.74
2022-12-13T11:30:09.282Z,27.83
2022-12-13T11:32:35.669Z,27.90
2022-12-13T11:35:04.500Z,27.97
2022-12-13T11:37:28.495Z,28.04
2022-12-13T11:40:01.881Z,28.08
2022-12-13T11:42:21.306Z,28.11
2022-12-13T11:44:48.220Z,28.14
2022-12-13T11:47:13.990Z,28.17
2022-12-13T11:49:40.299Z,28.24
2022-12-13T11:52:06.687Z,28.30
2022-12-13T11:54:33.162Z,28.34
2022-12-13T11:57:00.371Z,28.37
2022-12-13T11:59:27.158Z,28.41
2022-12-13T12:01:52.219Z,28.42
2022-12-13T12:04:18.542Z,28.43
2022-12-13T12:06:47.284Z,28.42
2022-12-13T12:09:11.287Z,28.16
2022-12-13T12:11:37.636Z,27.91
2022-12-13T12:14:03.988Z,27.76
2022-12-13T12:16:30.424Z,27.67
2022-12-13T12:19:01.304Z,27.74
2022-12-13T12:21:23.119Z,27.80
2022-12-13T12:23:52.630Z,27.83
2022-12-13T12:26:15.782Z,27.84
2022-12-13T12:28:44.126Z,27.81
2022-12-13T12:31:08.518Z,27.75
2022-12-13T12:33:34.818Z,27.37
2022-12-13T12:36:01.166Z,26.07
2022-12-13T12:38:28.121Z,24.76
2022-12-13T12:41:15.557Z,23.68
2022-12-13T12:43:20.212Z,23.12
2022-12-13T12:45:56.397Z,23.35
2022-12-13T12:50:43.139Z,23.79
2022-12-13T12:53:05.690Z,23.93
2022-12-13T12:55:32.076Z,24.01
2022-12-13T12:57:58.439Z,24.07
2022-12-13T13:00:24.947Z,24.10
2022-12-13T13:02:51.374Z,24.10
2022-12-13T13:05:17.621Z,24.09
2022-12-13T13:07:44.015Z,24.07
2022-12-13T13:10:16.247Z,24.07
2022-12-13T13:12:36.672Z,24.06
2022-12-13T13:15:03.054Z,24.00
2022-12-13T13:17:29.372Z,23.90
2022-12-13T13:20:05.404Z,23.79
2022-12-13T14:02:07.846Z,19.63
2022-12-13T14:04:34.139Z,19.60
2022-12-13T14:07:01.247Z,19.28
2022-12-13T14:09:26.840Z,19.29
2022-12-13T14:11:53.161Z,19.31
2022-12-13T14:14:21.803Z,19.26
2022-12-13T14:16:45.883Z,19.18
2022-12-13T14:19:12.284Z,19.05
2022-12-13T14:21:38.710Z,18.93
2022-12-13T14:24:05.054Z,18.80
2022-12-13T14:26:31.412Z,18.63
2022-12-13T14:28:57.793Z,18.48
2022-12-13T14:31:24.137Z,18.33
2022-12-13T14:33:50.440Z,18.19
2022-12-13T14:36:16.799Z,18.02
2022-12-13T14:38:43.170Z,17.85
2022-12-13T14:41:12.513Z,17.72
2022-12-13T14:43:38.843Z,17.58
2022-12-13T14:46:05.199Z,17.45
2022-12-13T14:48:31.534Z,17.33
2022-12-13T14:50:57.894Z,17.20
2022-12-13T14:53:24.608Z,17.06
2022-12-13T14:55:50.615Z,16.94
2022-12-13T14:58:16.953Z,16.87
2022-12-13T15:00:43.431Z,16.75
2022-12-13T15:03:09.673Z,16.63
2022-12-13T15:05:35.982Z,16.50
2022-12-13T15:08:10.921Z,16.38
2022-12-13T15:10:28.707Z,16.25
2022-12-13T15:12:55.040Z,16.14
2022-12-13T15:15:21.454Z,16.04
2022-12-13T15:17:47.828Z,15.93
2022-12-13T15:20:14.298Z,15.81
2022-12-13T15:22:40.616Z,15.72
2022-12-13T15:25:06.968Z,15.63
2022-12-13T15:27:33.341Z,15.55
2022-12-13T15:29:59.698Z,15.44
2022-12-13T15:32:26.077Z,15.35
2022-12-13T15:34:52.441Z,15.24
2022-12-13T15:37:28.624Z,15.12
2022-12-13T15:39:47.967Z,15.05
2022-12-13T15:42:11.448Z,14.98
2022-12-13T15:44:37.764Z,14.89
2022-12-13T15:47:04.186Z,14.80
2022-12-13T15:49:30.505Z,14.72
2022-12-13T15:51:56.852Z,14.63
2022-12-13T15:54:23.303Z,14.56
2022-12-13T15:56:49.641Z,14.51
2022-12-13T15:59:16.007Z,14.44
2022-12-13T16:01:42.401Z,14.37
2022-12-13T16:04:08.708Z,14.30
2022-12-13T16:06:35.102Z,14.22
2022-12-13T16:09:01.538Z,14.16
2022-12-13T16:11:27.859Z,14.08
2022-12-13T16:13:58.509Z,14.00
2022-12-13T16:16:26.669Z,13.92
2022-12-13T16:18:46.891Z,13.84
2022-12-13T16:21:13.300Z,13.77
2022-12-13T16:23:39.613Z,13.72
2022-12-13T16:26:09.207Z,13.63
2022-12-13T16:28:32.335Z,13.57
2022-12-13T16:30:58.733Z,13.51
2022-12-13T16:33:26.521Z,13.44
2022-12-13T16:35:51.418Z,13.39
2022-12-13T16:38:26.476Z,13.32
2022-12-13T16:40:44.098Z,13.24
2022-12-13T16:43:10.434Z,13.17
2022-12-13T16:45:43.803Z,13.11
2022-12-13T16:48:03.199Z,13.05
2022-12-13T16:50:29.526Z,12.97
2022-12-13T16:52:55.879Z,12.89
2022-12-13T16:55:22.276Z,12.82
2022-12-13T16:57:48.678Z,12.76
2022-12-13T17:00:15.063Z,12.72
2022-12-13T17:02:41.432Z,12.62
2022-12-13T17:05:07.804Z,12.53
2022-12-13T17:07:34.308Z,12.46
2022-12-13T17:10:00.602Z,12.40
2022-12-13T17:12:26.923Z,12.33
2022-12-13T17:14:53.305Z,12.26
2022-12-13T17:17:19.713Z,12.20
2022-12-13T17:19:46.046Z,12.13
2022-12-13T17:22:12.357Z,12.06
2022-12-13T17:24:38.738Z,11.96
2022-12-13T17:27:05.114Z,11.87
2022-12-13T17:29:31.503Z,11.80
2022-12-13T17:31:57.852Z,11.71
2022-12-13T17:34:24.243Z,11.57
2022-12-13T17:36:50.613Z,11.48
2022-12-13T17:39:17.001Z,11.42
2022-12-13T17:41:43.299Z,11.34
2022-12-13T17:44:09.722Z,11.26
2022-12-13T17:46:36.102Z,11.18
2022-12-13T17:49:02.409Z,11.17
2022-12-13T17:51:28.791Z,11.13
2022-12-13T17:53:55.125Z,11.08
2022-12-13T17:56:21.501Z,11.03
2022-12-13T17:58:47.845Z,10.95
2022-12-13T18:01:14.224Z,10.89
2022-12-13T18:03:40.525Z,10.87
2022-12-13T18:06:06.840Z,10.82
2022-12-13T18:08:33.198Z,10.78
2022-12-13T18:11:30.772Z,10.76
2022-12-13T18:13:26.306Z,10.70
2022-12-13T18:15:52.320Z,10.66
2022-12-13T18:18:18.649Z,10.64
2022-12-13T18:20:45.085Z,10.61
2022-12-13T18:23:11.381Z,10.56
2022-12-13T18:25:37.743Z,10.52
2022-12-13T18:28:04.084Z,10.48
2022-12-13T18:30:30.426Z,10.45
2022-12-13T18:32:57.393Z,10.41
2022-12-13T18:35:23.711Z,10.39
2022-12-13T18:37:50.094Z,10.37
2022-12-13T18:40:16.420Z,10.54
2022-12-13T18:42:44.511Z,10.86
2022-12-13T18:45:09.155Z,10.80
2022-12-13T18:47:35.549Z,10.69
2022-12-13T18:50:01.896Z,10.58
2022-12-13T18:52:28.306Z,10.51
2022-12-13T18:54:54.954Z,10.44
2022-12-13T18:57:21.004Z,10.37
2022-12-13T18:59:54.454Z,10.33
2022-12-13T19:02:13.714Z,10.29
2022-12-13T19:04:40.032Z,10.25
2022-12-13T19:07:06.462Z,10.22
2022-12-13T19:09:32.775Z,10.20
2022-12-13T19:11:59.110Z,10.16
2022-12-13T19:14:27.265Z,10.13
2022-12-13T19:16:51.839Z,10.11
2022-12-13T19:19:18.198Z,10.08
2022-12-13T19:21:44.543Z,10.06
2022-12-13T19:24:11.070Z,10.03
2022-12-13T19:26:37.257Z,10.02
2022-12-13T19:29:03.639Z,10.00
2022-12-13T19:31:32.272Z,9.97
2022-12-13T19:33:56.326Z,9.96
2022-12-13T19:36:22.662Z,9.92
2022-12-13T19:38:49.014Z,9.91
2022-12-13T19:41:15.375Z,9.90
2022-12-13T19:43:41.692Z,9.89
2022-12-13T19:46:08.131Z,9.88
2022-12-13T19:48:34.414Z,9.87
2022-12-13T19:51:00.750Z,9.85
2022-12-13T19:53:27.488Z,9.79
2022-12-13T19:55:53.447Z,9.78
2022-12-13T19:58:19.792Z,9.77
2022-12-13T20:00:46.188Z,9.76
2022-12-13T20:03:12.516Z,9.74
2022-12-13T20:05:43.935Z,9.70
2022-12-13T20:08:05.160Z,9.71
2022-12-13T20:10:31.538Z,9.71
2022-12-13T20:12:57.885Z,9.70
2022-12-13T20:15:24.259Z,9.69
2022-12-13T20:17:50.568Z,9.67
2022-12-13T20:20:16.964Z,9.66
2022-12-13T20:22:43.297Z,9.65
2022-12-13T20:25:09.627Z,9.65
2022-12-13T20:27:35.999Z,9.63
2022-12-13T20:30:02.378Z,9.63
2022-12-13T20:32:28.729Z,9.63
2022-12-13T20:34:55.315Z,9.62
2022-12-13T20:37:21.482Z,9.60
2022-12-13T20:39:47.831Z,9.59
2022-12-13T20:42:14.133Z,9.58
2022-12-13T20:44:40.501Z,9.57
2022-12-13T20:47:06.863Z,9.57
2022-12-13T20:49:33.150Z,9.55
2022-12-13T20:51:59.507Z,9.54
2022-12-13T20:54:25.966Z,9.53
2022-12-13T20:56:52.316Z,9.53
2022-12-13T20:59:18.690Z,9.51
2022-12-13T21:01:45.078Z,9.48
2022-12-13T21:04:11.392Z,9.50
2022-12-13T21:06:37.783Z,9.50
2022-12-13T21:09:04.196Z,9.50
2022-12-13T21:11:30.559Z,9.48
2022-12-13T21:13:57.659Z,9.47
2022-12-13T21:16:23.344Z,9.46
2022-12-13T21:18:49.646Z,9.45
2022-12-13T21:21:15.991Z,9.44
2022-12-13T21:23:42.328Z,9.44
2022-12-13T21:26:08.658Z,9.43
2022-12-13T21:28:35.047Z,9.43
2022-12-13T21:31:01.355Z,9.42
2022-12-13T21:33:28.006Z,9.42
2022-12-13T21:35:54.051Z,9.41
2022-12-13T21:38:20.397Z,9.39
2022-12-13T21:40:46.775Z,9.37
2022-12-13T21:43:13.144Z,9.37
2022-12-13T21:45:39.550Z,9.37
2022-12-13T21:48:05.847Z,9.35
2022-12-13T21:50:32.209Z,9.38
2022-12-13T21:52:58.553Z,9.37
2022-12-13T21:55:40.233Z,9.37
2022-12-13T21:57:51.255Z,9.37
2022-12-13T22:00:17.580Z,9.37
2022-12-13T22:02:43.962Z,9.36
2022-12-13T22:05:10.344Z,9.35
2022-12-13T22:07:36.724Z,9.34
2022-12-13T22:10:03.108Z,9.35
2022-12-13T22:12:29.448Z,9.34
2022-12-13T22:14:55.812Z,9.31
2022-12-13T22:17:22.185Z,9.32
2022-12-13T22:19:49.158Z,9.33
2022-12-13T22:22:14.901Z,9.32
2022-12-13T22:24:41.191Z,9.32
2022-12-13T22:27:07.570Z,9.31
2022-12-13T22:29:33.953Z,9.32
2022-12-13T22:32:00.296Z,9.32
2022-12-13T22:34:26.610Z,9.31
2022-12-13T22:36:52.947Z,9.32
2022-12-13T22:39:19.274Z,9.30
2022-12-13T22:41:45.652Z,9.30
2022-12-13T22:44:11.966Z,9.27
2022-12-13T22:46:38.340Z,9.25
2022-12-13T22:49:04.687Z,9.24
2022-12-13T22:51:31.024Z,9.23
2022-12-13T22:53:57.339Z,9.23
2022-12-13T22:56:23.686Z,9.21
2022-12-13T22:58:50.116Z,9.20
2022-12-13T23:01:16.640Z,9.20
2022-12-13T23:03:42.852Z,9.18
2022-12-13T23:06:09.241Z,9.18
2022-12-13T23:08:40.243Z,9.17
2022-12-13T23:11:01.895Z,9.15
2022-12-13T23:13:28.282Z,9.15
2022-12-13T23:15:54.704Z,9.13
2022-12-13T23:18:21.129Z,9.12
2022-12-13T23:20:48.539Z,9.10
2022-12-13T23:23:13.771Z,9.08
2022-12-13T23:25:42.720Z,9.07
2022-12-13T23:28:09.031Z,9.07
2022-12-13T23:30:35.466Z,9.05
2022-12-13T23:33:01.820Z,9.03
2022-12-13T23:35:28.314Z,9.01
2022-12-13T23:37:54.697Z,9.00
2022-12-13T23:40:21.082Z,8.99
2022-12-13T23:42:47.436Z,8.97
2022-12-13T23:45:13.769Z,8.94
2022-12-13T23:47:40.162Z,8.93
2022-12-13T23:50:06.550Z,8.91
2022-12-13T23:52:32.896Z,8.89
2022-12-13T23:54:59.248Z,8.88
2022-12-13T23:57:25.617Z,8.87
2022-12-13T23:59:51.944Z,8.87
